Pavlos Papadopoulos

Ojeador - Panathinaikos
13 Ene 2028
Jueves
Continuar

Personalidad

Adaptabilidad (1) Ambición (17) Controversia (20) Lealtad (13) Presión (20) Profesionalismo (6) Deportividad (16) Temperamento (16)

Perfil

Estilo de dirección Democrático
Licencia Continental Pro
Determinación 6
Gestión de personas 6
Motivación 5
Disciplina 11
Satisfacción laboral
100%
Fatiga
0%
Cargo Ojeador
Salario 90.5K p/s
Contrato 14.03.2029

Rendimiento

Comportamiento Bueno
Efectividad del entrenamiento
35%
Desarrollo de jugadores
60%
Prevención de lesiones
40%
Implementación táctica
25%

Eventos recientes

Asistió a una reunión de captación 7d atrás
Recomendó un objetivo de fichaje 7d atrás
Asistió a una reunión de captación 14d atrás
Recomendó un objetivo de fichaje 14d atrás
Evaluó a un jugador 14d atrás
Asistió a una reunión de captación 21d atrás
Observó un partido 21d atrás
Observó un partido 21d atrás

Actualmente siguiendo

237
Jugador Club Estado Habilidad Confianza Observado Última observación Último voto
Danilo Botafogo Activo 147 / 140 40% 1 31.12.2027 -
Teboho Mokoena Independiente Perdido 137 / 132 40% 1 31.12.2027 -
Jay Robinson Southampton Activo 134 / 137 40% 1 19.12.2027 -
Kutlwano Letlhaku Ajax Cape Town Activo 118 / 119 40% 1 19.12.2027 -
Dmitry Pestryakov Dinamo Moscow Activo 113 / 122 40% 1 19.12.2027 -
Mateo Silvetti Los Angeles Football Club Activo 132 / 122 40% 5 18.12.2027 -
Mikkel Hope Haugesund Activo 94 / 114 40% 3 16.12.2027 -
Kauã Elias Anderlecht Activo 139 / 136 40% 2 16.12.2027 -
Jan Virgili Club Brugge Activo 139 / 144 40% 1 16.12.2027 -
Lion Beqiri Falkenberg Activo 101 / 107 40% 2 15.12.2027 -
Santiago López Independiente Activo 115 / 124 40% 3 15.12.2027 -
Maren Kefas Plateau United Activo 98 / 97 40% 5 12.12.2027 -
Hervin Goyes Deportivo Pasto Activo 108 / 114 40% 3 06.12.2027 -
Siyabonga Mabena Chippa United Activo 118 / 129 40% 1 06.12.2027 -
Tiziano Dornell Danubio Activo 113 / 128 40% 3 05.12.2027 -
Kerwin Vargas Seattle Sounders Activo 122 / 126 40% 2 05.12.2027 -
Juan Rocca Gimnasia y Tiro Activo 108 / 110 40% 7 05.12.2027 -
Mateo Peralta Danubio Activo 107 / 124 40% 3 05.12.2027 -
Tomás Aranda Boca Juniors Activo 112 / 122 40% 2 05.12.2027 -
Luca Williams-Barnett Tranmere Rovers Activo 119 / 131 40% 2 05.12.2027 -
Shea Lacey Wolverhampton Activo 135 / 136 40% 1 03.12.2027 -
Rafael Navarro St. Louis CITY SC Activo 124 / 131 40% 3 01.12.2027 -
Duncan McGuire Houston Dynamo Activo 124 / 126 40% 2 01.12.2027 -
Agustín Anello Philadelphia Union Activo 125 / 129 40% 2 01.12.2027 -
Manuel Ospina Cortulua Activo 124 / 132 40% 2 30.11.2027 -
Jefry Zapata Danubio Activo 114 / 120 40% 3 30.11.2027 -
Esteban da Silva Racing Activo 111 / 115 40% 1 30.11.2027 -
Kévin Denkey FC Cincinnati Activo 131 / 125 40% 5 29.11.2027 -
Santiago Sala Güemes Activo 118 / 118 40% 4 29.11.2027 -
Fernando Mimbacas Juventud Activo 115 / 109 40% 2 29.11.2027 -
Luca Langoni Colorado Rapids Activo 131 / 130 40% 6 28.11.2027 -
Max Fenger IFK Goteborg Activo 122 / 132 40% 2 28.11.2027 -
Sebastián Ramírez Jaguares Activo 111 / 104 40% 1 25.11.2027 -
Bazoumana Touré Newcastle United Activo 147 / 152 40% 1 25.11.2027 -
Armindo Sieb Los Angeles Football Club Activo 118 / 118 40% 3 24.11.2027 -
Paulos Abraham Hammarby Activo 119 / 115 40% 4 24.11.2027 -
Gustavo Santos Krasnodar Activo 126 / 127 40% 1 24.11.2027 -
Mateus Mané Manchester United Activo 140 / 141 40% 1 24.11.2027 -
Olívio Tomé Benfica Activo 120 / 118 40% 1 23.11.2027 -
Mads Bomholt Stabaek Activo 115 / 120 40% 3 22.11.2027 -
Diogo Guzmán Montevideo City Torque Activo 113 / 114 40% 7 20.11.2027 -
Santiago Apa All Boys Activo 107 / 113 40% 3 19.11.2027 -
Misael Sosa Godoy Cruz Activo 116 / 123 40% 3 19.11.2027 -
Alejo Cruz Juventud Activo 129 / 132 40% 3 19.11.2027 -
Leonardo Campana New England Revolution Activo 132 / 123 40% 1 17.11.2027 -
Bénie Traoré New York City Activo 130 / 135 40% 4 14.11.2027 -
Alan Velasco Boca Juniors Activo 129 / 141 40% 2 13.11.2027 -
Louis Munteanu DC United Activo 138 / 126 40% 4 12.11.2027 -
Luciano Cosentino Wanderers Activo 130 / 126 40% 4 12.11.2027 -
Franco Minerva Platense Activo 109 / 125 40% 2 11.11.2027 -
Igor Tyjon Doncaster Rovers Activo 107 / 122 40% 1 11.11.2027 -
Emiliano Saliadarre Miramar Misiones Activo 109 / 106 40% 2 09.11.2027 -
Jáder Valencia Deportes Tolima Activo 119 / 114 40% 2 07.11.2027 -
Giovanni Cantizano Rosario Central Activo 119 / 119 40% 1 06.11.2027 -
Alexis Cuello San Lorenzo Activo 126 / 133 40% 4 04.11.2027 -
Alexander Díaz Deportivo Riestra Activo 117 / 113 40% 2 04.11.2027 -
Theo Corbeanu Toronto FC Activo 124 / 128 40% 2 03.11.2027 -
Ibrahim Aliyu Houston Dynamo Activo 119 / 127 40% 5 02.11.2027 -
Agustín Módica Gimnasia y Esgrima Activo 129 / 121 40% 2 01.11.2027 -
Indiana Vassilev Philadelphia Union Activo 122 / 117 40% 1 31.10.2027 -
Jesus Ferreira Seattle Sounders Activo 141 / 131 40% 1 29.10.2027 -
Luca Martínez Dupuy Godoy Cruz Activo 126 / 127 40% 1 27.10.2027 -
Kelvin Flórez Atletico Bucaramanga Activo 124 / 120 40% 2 24.10.2027 -
Fredrik Ardraa Stromsgodset Activo 106 / 104 40% 1 23.10.2027 -
Augusto Berrondo Tristán Suárez Activo 119 / 116 40% 2 22.10.2027 -
Josh Sargent Toronto FC Activo 140 / 141 40% 1 22.10.2027 -
Giovanni Baroni Talleres Activo 103 / 125 40% 4 15.10.2027 -
Bop Guèye Haugesund Activo 107 / 121 40% 2 15.10.2027 -
Mfundo Vilakazi Kaizer Chiefs Activo 119 / 113 40% 2 14.10.2027 -
Bautista Tomatis Racing Activo 120 / 114 40% 1 11.10.2027 -
Diego García Malmo FF Activo 125 / 124 40% 1 10.10.2027 -
Enzo Cabrera Danubio Activo 108 / 116 40% 2 09.10.2027 -
Sebastián Cocimano Nueva Chicago Activo 112 / 103 40% 3 09.10.2027 -
Rodrigo Villalba River Plate Activo 103 / 107 40% 1 08.10.2027 -
Kevin Angulo America de Cali Activo 107 / 100 40% 1 08.10.2027 -
Negueba Mirassol Activo 126 / 133 40% 1 04.10.2027 -
Nəriman Axundzadə Columbus Crew Activo 134 / 117 40% 2 01.10.2027 -
Migouel Alfarela Kifisia Activo 123 / 123 42% 1 / 1m 29.09.2027 -
Konstantinos Apostolakis Kifisia Activo 111 / 111 42% 1 / 1m 29.09.2027 -
Gerson Sousa Kifisia Activo 117 / 117 30% 1 / 1m 29.09.2027 -
Matías Lozano Deportivo Pasto Activo 106 / 109 40% 1 29.09.2027 -
Joel Ezra Enyimba Activo 88 / 92 40% 1 28.09.2027 -
Luis Otávio Colorado Rapids Activo 114 / 120 40% 1 28.09.2027 -
Timofey Simanenka Gomel Activo 94 / 106 40% 1 26.09.2027 -
Dylan Cabral Arsenal Activo 97 / 95 40% 1 24.09.2027 -
Musa Malik Ikorodu City Activo 93 / 101 40% 1 22.09.2027 -
Ruben Ramos LA Galaxy Activo 102 / 96 40% 1 22.09.2027 -
Othmane Maamma Watford Activo 129 / 129 40% 8 21.09.2027 -
Cristian Florez Cortulua Activo 99 / 108 40% 1 21.09.2027 -
Joel Medina Independiente Activo 107 / 113 40% 1 15.09.2027 -
Jardell Kanga Ilves Activo 92 / 117 40% 1 15.09.2027 -
Andrés Amaya Fortaleza CEIF Activo 118 / 111 40% 1 06.09.2027 -
Matheuzinho Corinthians Activo 125 / 141 40% 1 31.08.2027 -
Fredrik Bjørkan Bodo/Glimt Activo 128 / 135 40% 1 31.08.2027 -
Rhian Brewster Oxford United Activo 129 / 126 40% 2 09.08.2027 -
Fabrizio Cavegn Bristol Rovers Activo 112 / 109 40% 1 09.08.2027 -
Adam Idah Swansea City Activo 126 / 132 40% 1 09.08.2027 -
Santiago Pierotti Lecce Activo 134 / 129 40% 1 28.07.2027 -
Cameron Archer Southampton Activo 135 / 136 40% 1 28.07.2027 -
Yousef Salech Cardiff City Activo 131 / 135 40% 1 12.07.2027 -
Majid Beiranvand Rah Ahan Activo 114 / 107 40% 1 03.07.2027 -
Karim Karimi Siah Jamegan Activo 116 / 104 40% 1 30.06.2027 -
Marezi Portsmouth Activo 120 / 126 40% 1 30.06.2027 -
Josh Coburn Millwall Activo 121 / 128 40% 1 30.06.2027 -
Álvaro Rodríguez Bournemouth Activo 137 / 133 40% 2 23.06.2027 -
Tomás González Piast Activo 114 / 124 40% 1 23.06.2027 -
Jovon Makama Norwich City Activo 125 / 131 40% 1 23.06.2027 -
David Romero Parma Activo 122 / 123 40% 1 22.06.2027 -
Tino Kadewere Aris Thessaloniki Activo 116 / 117 76% 1 14.06.2027 Aprobar
Dale Taylor Blackpool Activo 110 / 113 40% 1 14.06.2027 -
Dean Henderson Crystal Palace Activo 153 / 158 40% 1 30.05.2027 -
Romano Schmid Frosinone Activo 146 / 144 40% 4 29.05.2027 -
Callum O'Hare Sheffield United Activo 130 / 132 40% 2 27.05.2027 -
Tom Fellows Southampton Activo 130 / 129 40% 2 26.05.2027 -
Alex Meret Napoli Activo 156 / 155 40% 2 24.05.2027 -
Vladan Kovačević Norwich City Activo 119 / 125 40% 1 24.05.2027 -
Finn Azaz Southampton Activo 135 / 121 40% 3 23.05.2027 -
Derensili Sanches Fernandes Huddersfield Town Activo 125 / 129 40% 7 23.05.2027 -
Jason Knight Bristol City Activo 130 / 134 40% 2 23.05.2027 -
James Trafford Leeds United Activo 150 / 140 40% 2 22.05.2027 -
Mateusz Kochalski Dynamo Kyiv Activo 139 / 131 40% 1 22.05.2027 -
Simone Scuffet Pisa Activo 134 / 127 40% 3 21.05.2027 -
Martin Jedlička Banik Ostrava Activo 124 / 124 40% 1 21.05.2027 -
Jonathan Klinsmann Cesena Activo 126 / 134 40% 2 20.05.2027 -
Nicolas Schmid Portsmouth Activo 126 / 122 40% 3 20.05.2027 -
Michele Cerofolini Bari Activo 131 / 133 40% 1 20.05.2027 -
Arijanet Murić Sassuolo Activo 138 / 140 40% 3 19.05.2027 -
Kyrylo Fesiun Shakhtar Activo 122 / 124 40% 2 19.05.2027 -
Grégoire Coudert Burnley Activo 132 / 128 40% 2 19.05.2027 -
Marquinhos APOEL Activo 140 / 136 40% 5 18.05.2027 -
Hwang Hee-Chan Wolverhampton Activo 134 / 137 40% 2 18.05.2027 -
Tommy Conway Middlesbrough Activo 131 / 128 40% 1 18.05.2027 -
Welington Southampton Activo 133 / 125 40% 5 17.05.2027 -
Jack Currie Oxford United Activo 127 / 123 40% 2 17.05.2027 -
Tariq Lamptey Queens Park Rangers Activo 139 / 140 40% 2 17.05.2027 -
Justin Bijlow Genoa Activo 145 / 141 40% 1 17.05.2027 -
Harrison Burrows Sheffield United Activo 123 / 130 40% 1 17.05.2027 -
Giorgi Chakvetadze Watford Activo 124 / 122 40% 4 16.05.2027 -
Mohamed-Ali Cho Hull City Activo 137 / 142 40% 5 16.05.2027 -
Derry Murkin Derby County Activo 123 / 132 40% 4 13.05.2027 -
Ronald Swansea City Activo 127 / 129 40% 4 13.05.2027 -
Zeidane Inoussa Swansea City Activo 118 / 122 40% 1 13.05.2027 -
Jacob Greaves Ipswich Town Activo 136 / 132 40% 3 12.05.2027 -
Florentino Luís Ipswich Town Activo 140 / 135 40% 3 12.05.2027 -
Sorba Thomas Stoke City Activo 131 / 128 40% 3 12.05.2027 -
Tatsuhiro Sakamoto Coventry City Activo 127 / 132 40% 1 12.05.2027 -
Habib Diarra Sunderland Activo 137 / 144 40% 1 12.05.2027 -
Ethan Galbraith Swansea City Activo 129 / 136 40% 6 09.05.2027 -
Max Bird Birmingham Activo 130 / 137 40% 3 09.05.2027 -
Richard Koné Queens Park Rangers Activo 129 / 123 40% 1 09.05.2027 -
Morgan Whittaker Middlesbrough Activo 134 / 127 40% 8 07.05.2027 -
Marcelo Allende Mamelodi Sundowns Activo 132 / 129 40% 4 07.05.2027 -
Caleb Yirenkyi Coventry City Activo 130 / 139 40% 1 07.05.2027 -
Lewis Bate Stockport County Activo 126 / 127 40% 1 05.05.2027 -
Isaiah Jones Luton Town Activo 127 / 117 40% 3 01.05.2027 -
Domenico Berardi Sassuolo Activo 141 / 146 40% 1 29.04.2027 -
Zian Flemming Ipswich Town Activo 135 / 132 40% 1 28.04.2027 -
Callum Brittain Middlesbrough Activo 135 / 130 40% 1 28.04.2027 -
Fahad Hassan Al Shabab Activo 120 / 122 40% 1 28.04.2027 -
Edoardo Motta Lazio Activo 124 / 131 40% 1 28.04.2027 -
Heorhii Bushchan Polissia Activo 130 / 126 40% 1 28.04.2027 -
Kazunari Kita Real Sociedad Activo 97 / 101 40% 1 27.04.2027 -
Davide Bartesaghi AC Milan Activo 132 / 128 40% 1 27.04.2027 -
Sascha Britschgi Padova Activo 116 / 125 40% 1 27.04.2027 -
Percy Jali Free State Stars Activo 102 / 111 40% 2 26.04.2027 -
Christ Inao Oulaï Fiorentina Activo 137 / 140 40% 1 26.04.2027 -
Daniel Iversen Preston Activo 129 / 132 40% 1 24.04.2027 -
Egil Selvik Watford Activo 128 / 124 40% 2 22.04.2027 -
Ali Ahmed Norwich City Activo 121 / 117 40% 1 22.04.2027 -
Nikola Vasilj Al-Diriyah Activo 129 / 131 40% 1 19.04.2027 -
Ricardo Velho Aris Thessaloniki Activo 128 / 118 40% 1 18.04.2027 -
Lewis Morgan SuperSport United Activo 123 / 134 40% 3 17.04.2027 -
Matías Gómez Granada Activo 110 / 120 40% 1 17.04.2027 -
Kwadwo Baah Watford Activo 125 / 129 40% 5 12.04.2027 -
Georges-Kévin Nkoudou Al-Diriyah Activo 129 / 136 40% 5 11.04.2027 -
Milan van Ewijk Mansfield Town Activo 127 / 138 40% 2 10.04.2027 -
Ilyas Ansah Hull City Activo 137 / 132 40% 1 10.04.2027 -
Kayne Ramsay Charlton Athletic Activo 128 / 127 40% 1 10.04.2027 -
Edoardo Bove Watford Activo 133 / 124 40% 1 10.04.2027 -
Max Meyer APOEL Activo 126 / 118 40% 3 08.04.2027 -
Bertrand Traoré Sunderland Activo 131 / 133 40% 1 08.04.2027 -
Adam Bakoune Ospitaletto Activo 95 / 104 40% 1 07.04.2027 -
Panagiotis Markou Doxa Activo 102 / 92 40% 1 07.04.2027 -
Hélio Varela Maccabi Tel Aviv Activo 118 / 116 40% 2 04.04.2027 -
Pelle Mattsson Norwich City Activo 128 / 127 40% 1 04.04.2027 -
Mandla Erasmus SuperSport United Activo 110 / 116 40% 1 04.04.2027 -
Di'Shon Bernard Sheffield Wednesday Activo 120 / 114 40% 1 03.04.2027 -
Adilson Malanda Middlesbrough Activo 133 / 129 40% 1 03.04.2027 -
Kwame Poku Queens Park Rangers Activo 128 / 127 40% 1 31.03.2027 -
Joe Gelhardt Hull City Activo 128 / 139 40% 2 26.03.2027 -
Shea Charles Southampton Activo 134 / 144 40% 3 25.03.2027 -
Marquinhos Spartak Moscow Activo 128 / 122 40% 3 24.03.2027 -
Scott Twine Bristol City Activo 123 / 119 40% 3 24.03.2027 -
Jack McGlynn Stoke City Activo 128 / 126 40% 2 21.03.2027 -
Noah Sadiki Sunderland Activo 141 / 141 40% 1 21.03.2027 -
Kasey McAteer Ipswich Town Activo 136 / 125 40% 1 21.03.2027 -
Sondre Langås Derby County Activo 131 / 126 40% 1 19.03.2027 -
Will Smallbone Southampton Activo 124 / 129 40% 1 19.03.2027 -
Riley McGree Middlesbrough Activo 127 / 137 40% 1 15.03.2027 -
Leif Davis Ipswich Town Activo 140 / 137 40% 3 14.03.2027 -
Hany Mukhtar Spezia Activo 141 / 133 40% 2 14.03.2027 Más información
Harry Clarke Preston Activo 123 / 127 40% 2 13.03.2027 -
Marlon Gomes Shakhtar Activo 134 / 142 40% 1 13.03.2027 -
Anel Ahmedhodžić Burnley Activo 134 / 142 40% 1 11.03.2027 -
Jhon Jhon Zenit Activo 136 / 132 40% 2 05.03.2027 -
Mikey Johnston West Bromwich Albion Activo 120 / 122 40% 1 04.03.2027 -
Nicolò Cambiaghi Bologna Activo 137 / 132 40% 1 03.03.2027 -
Mohau Nkota Al-Ettifaq Activo 127 / 115 40% 1 02.03.2027 -
Sayfallah Ltaief Cracovia Activo 129 / 123 40% 1 02.03.2027 -
Tyrese Campbell Sheffield United Activo 123 / 132 40% 1 02.03.2027 -
Imrân Louza Watford Activo 134 / 130 40% 1 26.02.2027 -
Sergio Lozano Jagiellonia Activo 126 / 129 40% 1 25.02.2027 -
Million Manhoef Stoke City Activo 129 / 126 40% 1 25.02.2027 -
Patrik Wålemark Lech Activo 133 / 120 40% 1 24.02.2027 -
Josh Tymon Swansea City Activo 127 / 129 40% 3 23.02.2027 -
Femi Seriki Sheffield United Activo 122 / 128 40% 1 23.02.2027 -
Bradley Tau SuperSport United Activo 120 / 127 40% 1 21.02.2027 -
Gustavo Mantuan Zenit Activo 128 / 125 40% 1 21.02.2027 -
Petar Stanić Ludogorets Activo 134 / 132 40% 1 19.02.2027 -
Alexandr Chernikov Krasnodar Activo 126 / 130 40% 1 18.02.2027 -
Matheus Gonçalves Al-Ahli Activo 127 / 125 40% 2 16.02.2027 -
Kristoffer Lund Birmingham Activo 127 / 123 40% 1 15.02.2027 -
Ki-Jana Hoever Sparta Prague Activo 132 / 133 40% 1 12.02.2027 -
Toby Collyer West Bromwich Albion Activo 135 / 131 40% 1 07.02.2027 -
Oliver Skipp Leicester City Activo 128 / 132 40% 1 07.02.2027 -
Emanuel Aiwu Apollon Activo 114 / 123 40% 1 05.02.2027 -
Nazar Voloshyn Dynamo Kyiv Activo 130 / 130 40% 1 03.02.2027 -
Will Fish Cardiff City Activo 121 / 130 40% 1 02.02.2027 -
Rubens Dinamo Moscow Activo 133 / 124 40% 1 02.02.2027 -
Jacques Ekomié Wrexham Activo 133 / 132 40% 1 01.02.2027 -
Tomáš Rigo Stoke City Activo 136 / 126 40% 1 26.01.2027 -
Isaac Price West Bromwich Albion Activo 127 / 129 40% 1 18.01.2027 -
Christian Krasnodar Activo 141 / 133 40% 1 11.01.2027 -
Ivan Toney Al-Ahli Activo 145 / 151 40% 1 31.12.2026 -
Yusuke Matsuo Esteghlal Activo 131 / 133 40% 1 31.12.2026 -
Musa Barrow Al-Khaleej Activo 125 / 146 40% 1 01.08.2026 -
Deniz Undav VfB Stuttgart Activo 153 / 147 40% 1 01.08.2026 -